ěÝzenÝ letovÚho provozu ╚eskÚ republiky
Letiste: LKTB Aktualizace: 21.09.2021 04:30:28  UTC
 METAR LKTB 21.09. 04:30 ...
METAR LKTB 210430Z 07003KT CAVOK 10/06 Q1025 NOSIG RMK REG QNH 1022=
 TAF LKTB 20.09. 23:00 ...
TAF LKTB 202300Z 2100/2206 32006KT 9999 SCT040      BECMG 2204/2206 8000 -RA OVC014=